PORT of ZIRKU

Country: UAE Country: UAE [AE]
Latitude / Longitude: 24.87291° / 53.089715° Show on Map
Local Time:  [UTC +4]
UN/LOCODE: AEZUR
Vessels in Port: 1
Expected Arrivals: 3

Recent Arrivals & Departures


Vessel Name
Arrival (UTC)
Arrival (LT)
Departure (UTC)
Departure (LT)
Vessel Type: Tugs, Pilots etc  OHAIDAH 2014-08-29 19:25:00 2014-08-29 23:25:00
NAGROOR 2014-08-29 01:28:00 2014-08-29 05:28:00 2014-08-29 14:34:00 2014-08-29 18:34:00
Vessel Type: Tugs, Pilots etc  NMS 203 2014-08-29 06:02:00 2014-08-29 10:02:00 2014-08-29 13:48:00 2014-08-29 17:48:00
Vessel Type: Yachts & Others  HANKS TIDE 2014-08-17 11:01:00 2014-08-17 15:01:00 2014-08-29 12:31:00 2014-08-29 16:31:00
Vessel Type: Tugs, Pilots etc  ESNAAD 851 2014-08-29 07:24:00 2014-08-29 11:24:00
Vessel Type: High Speed Craft  WINDCAT 101 2014-08-29 05:23:00 2014-08-29 09:23:00
ZAKHER QUEEN 2014-08-29 03:18:00 2014-08-29 07:18:00 2014-08-29 05:22:00 2014-08-29 09:22:00
NAGROOR 2014-08-29 01:28:00 2014-08-29 05:28:00 2014-08-29 02:37:00 2014-08-29 06:37:00
Vessel Type: Yachts & Others  ESNAAD 850 2014-08-28 05:15:00 2014-08-28 09:15:00 2014-08-28 15:39:00 2014-08-28 19:39:00
ZAKHER QUEEN 2014-08-28 12:21:00 2014-08-28 16:21:00 2014-08-28 14:13:00 2014-08-28 18:13:00

Expected Arrivals


Vessel Name
Scheduled Arrival (UTC)
Scheduled Arrival (LT)
Estimated Arrival (UTC)
Estimated Arrival (LT)
Vessel Type: Tankers  MARAN CYGNUS 2014-08-28 07:00:00 2014-08-28 11:00:00
Vessel Type: Tankers  FPMC C MELODY 2014-08-28 15:00:00 2014-08-28 19:00:00 2014-08-29 21:08:00 2014-08-30 01:08:00
Vessel Type: Tugs, Pilots etc  NAVIMAR 7 2014-08-29 05:30:00 2014-08-29 09:30:00

Wind Forecast


    
Time (UTC)
Speed
Direction
Temperature
2014-08-29 18:00:00 15 knots 66° 35°C
2014-08-29 21:00:00 14 knots 124° 34°C
2014-08-30 00:00:00 14 knots 151° 35°C
2014-08-30 03:00:00 7 knots 87° 35°C
2014-08-30 06:00:00 2 knots 104° 34°C
2014-08-30 09:00:00 2 knots 125° 34°C
2014-08-30 12:00:00 3 knots 24° 35°C
2014-08-30 15:00:00 8 knots 42° 35°C
2014-08-30 18:00:00 8 knots 53° 35°C
2014-08-30 21:00:00 8 knots 57° 35°C
2014-08-31 00:00:00 8 knots 78° 35°C
2014-08-31 03:00:00 7 knots 128° 34°C
2014-08-31 06:00:00 8 knots 175° 34°C
2014-08-31 09:00:00 3 knots 313° 34°C
2014-08-31 12:00:00 11 knots 354° 34°C
2014-08-31 15:00:00 8 knots 359° 35°C
2014-08-31 18:00:00 7 knots 26° 35°C

NO_PHOTO

No Photos for this port. Be the first to upload one!